M I D A S
Marine Information and Data Acquisition System
Tripno 309 of the Zeeleeuw from 2002-08-23 06:30:27 to 2002-08-23 13:35:26
Back to CruiseResearch ActivitiesStationsMapUnderway DataData graphs

EquipmentUnitsComment
TimeDGPSUTC
LatitudeDGPSDM.mWGS84
LongitudeDGPSDM.mWGS84
TemperatureSBE03/SBE38deg celciusITS90
ConductivitySBE21S/mITS90
SalinitySBE21 Practical Salinity Units
ChlorophylAChelsea fluorimeterg/lCalibrated in Aceton
Missing or incorrect values are displayed as -999
Sea surface data collected by the RV Zeeleeuw from 2002-08-23 06:30:27 to 2002-08-23 13:35:26
                                                                                    Next 1000 lines
Time Latitude Longitude Temperature Conductivity Salinity ChlorophylA
2002-08-23 06:30:33 51°13.664 2°55.947 33.039077 0.060191 0.295194  
2002-08-23 06:30:38 51°13.665 2°55.944 32.925655 0.060191 0.295207  
2002-08-23 06:30:43 51°13.666 2°55.941 32.925655 0.060191 0.295207  
2002-08-23 06:30:49 51°13.667 2°55.936 33.230519 0.060191 0.295211  
2002-08-23 06:30:54 51°13.667 2°55.932 22.452586 0.060295 0.295569  
2002-08-23 06:30:59 51°13.668 2°55.927 22.383244 0.043765 0.213279  
2002-08-23 06:31:03 51°13.669 2°55.924 22.021758 0.062062 0.305298  
2002-08-23 06:31:09 51°13.67 2°55.918 21.876611 1.754774 10.608904  
2002-08-23 06:31:14 51°13.671 2°55.913 21.876611 1.754774 10.608904  
2002-08-23 06:31:19 51°13.672 2°55.907 21.818067 2.164647 13.533117  
2002-08-23 06:31:23 51°13.673 2°55.903 21.743922 2.402342 15.25107  
2002-08-23 06:31:29 51°13.674 2°55.896 21.689338 2.454378 15.710401  
2002-08-23 06:31:34 51°13.675 2°55.891 21.623127 2.601371 16.796707  
2002-08-23 06:31:39 51°13.675 2°55.885 21.473519 2.772715 18.090199  
2002-08-23 06:31:44 51°13.676 2°55.879 21.473519 2.772715 18.090199  
2002-08-23 06:31:49 51°13.677 2°55.874 21.646575 2.801017 18.348305  
2002-08-23 06:31:54 51°13.678 2°55.868 21.468763 2.980749 19.712892  
2002-08-23 06:31:59 51°13.678 2°55.863 21.409129 3.126013 20.840316  
2002-08-23 06:32:03 51°13.679 2°55.858 21.567501 3.192343 21.374261  
2002-08-23 06:32:11 51°13.68 2°55.849 21.230642 3.222352 21.629215  
2002-08-23 06:32:18 51°13.68 2°55.841 21.377944 3.257102 21.913838  
2002-08-23 06:32:22 51°13.68 2°55.836 21.422892 3.300489 22.257497  
2002-08-23 06:32:27 51°13.68 2°55.83 21.38834 3.355992 22.69686  
2002-08-23 06:32:33 51°13.68 2°55.823 21.391276 3.389275 22.968755  
2002-08-23 06:32:38 51°13.68 2°55.816 21.391276 3.389275 22.968755  
2002-08-23 06:32:43 51°13.68 2°55.81 21.285896 3.435727 23.332226  
2002-08-23 06:32:47 51°13.68 2°55.805 21.555784 3.447314 23.436844  
2002-08-23 06:32:53 51°13.68 2°55.798 21.324985 3.450475 23.469235  
2002-08-23 06:32:58 51°13.679 2°55.792 21.440895 3.458059 23.537586  
2002-08-23 06:33:02 51°13.679 2°55.788 21.33118 3.467646 23.61883  
2002-08-23 06:33:07 51°13.678 2°55.783 21.33118 3.467646 23.61883  
2002-08-23 06:33:12 51°13.677 2°55.779 21.485526 3.487345 23.779472  
2002-08-23 06:33:17 51°13.676 2°55.774 21.309058 3.513683 23.987077  
2002-08-23 06:33:22 51°13.675 2°55.77 21.298133 3.537492 24.17826  
2002-08-23 06:33:27 51°13.674 2°55.767 21.325899 3.549819 24.276203  
2002-08-23 06:33:31 51°13.674 2°55.764 21.221018 3.566782 24.413664  
2002-08-23 06:33:37 51°13.672 2°55.76 21.221018 3.566782 24.413664  
2002-08-23 06:33:42 51°13.671 2°55.757 21.449538 3.578056 24.506984  
2002-08-23 06:33:47 51°13.67 2°55.754 21.085704 3.588487 24.591636  
2002-08-23 06:33:51 51°13.67 2°55.752 21.311799 3.59934 24.681546  
2002-08-23 06:33:57 51°13.669 2°55.749 21.240901 3.5966 24.6659  
2002-08-23 06:34:02 51°13.668 2°55.748 21.271629 3.582692 24.565832  
2002-08-23 06:34:06 51°13.668 2°55.746 21.271629 3.582692 24.565832  
2002-08-23 06:34:11 51°13.667 2°55.745 21.2028 3.565097 24.435435  
2002-08-23 06:34:17 51°13.667 2°55.744 21.332649 3.547713 24.3067  
2002-08-23 06:34:22 51°13.667 2°55.744 21.330029 3.532226 24.193179  
2002-08-23 06:34:27 51°13.668 2°55.744 21.129563 3.516002 24.072948  
2002-08-23 06:34:31 51°13.668 2°55.744 21.186726 3.500621 23.959155  
2002-08-23 06:34:37 51°13.669 2°55.744 21.186726 3.500621 23.959155  
2002-08-23 06:34:42 51°13.669 2°55.745 21.373578 3.481553 23.816741  
2002-08-23 06:34:47 51°13.671 2°55.745 21.238913 3.446474 23.552245  
2002-08-23 06:34:51 51°13.672 2°55.746 21.240185 3.404024 23.233992  
2002-08-23 06:34:56 51°13.674 2°55.747 21.268847 3.357786 22.887701  
2002-08-23 06:35:02 51°13.676 2°55.748 21.26849 3.325558 22.647719  
2002-08-23 06:35:07 51°13.679 2°55.748 21.26849 3.325558 22.647719  
2002-08-23 06:35:11 51°13.682 2°55.748 21.236607 3.290173 22.385007  
2002-08-23 06:35:17 51°13.686 2°55.747 21.142026 3.283644 22.338845  
2002-08-23 06:35:22 51°13.69 2°55.746 21.265191 3.27701 22.291536  
2002-08-23 06:35:27 51°13.695 2°55.744 21.199895 3.275851 22.284273  
2002-08-23 06:35:30 51°13.697 2°55.742 21.196076 3.273429 22.268237  
2002-08-23 06:35:37 51°13.705 2°55.737 21.196076 3.273429 22.268237  
2002-08-23 06:35:42 51°13.71 2°55.732 21.230483 3.269954 22.243217  
2002-08-23 06:35:46 51°13.715 2°55.729 21.200811 3.268059 22.228627  
2002-08-23 06:35:51 51°13.721 2°55.723 21.271629 3.270165 22.245873  
2002-08-23 06:35:57 51°13.729 2°55.716 21.148436 3.276378 22.292893  
2002-08-23 06:36:01 51°13.735 2°55.712 21.084588 3.273429 22.272541  
2002-08-23 06:36:07 51°13.743 2°55.703 21.084588 3.273429 22.272541  
2002-08-23 06:36:11 51°13.749 2°55.698 21.154488 3.263741 22.200862  
2002-08-23 06:36:17 51°13.757 2°55.69 21.23935 3.245103 22.06133  
2002-08-23 06:36:22 51°13.765 2°55.683 21.259824 3.211828 21.811163  
2002-08-23 06:36:27 51°13.773 2°55.675 21.345276 3.175503 21.537496  
2002-08-23 06:36:30 51°13.777 2°55.671 21.23601 3.15255 21.36384  
2002-08-23 06:36:35 51°13.786 2°55.663 21.23601 3.15255 21.36384  
2002-08-23 06:36:41 51°13.796 2°55.655 21.345594 3.127809 21.177717  
2002-08-23 06:36:47 51°13.807 2°55.646 21.349008 3.082015 20.833592  
2002-08-23 06:36:52 51°13.816 2°55.639 21.251755 3.024226 20.397817  
2002-08-23 06:36:57 51°13.825 2°55.632 21.391078 2.963496 19.940314  
2002-08-23 06:37:02 51°13.834 2°55.626 21.249846 2.867312 19.222179  
2002-08-23 06:37:07 51°13.844 2°55.62 21.249846 2.867312 19.222179  
2002-08-23 06:37:11 51°13.852 2°55.615 21.310806 2.781667 18.58408  
2002-08-23 06:37:14 51°13.858 2°55.611 21.380325 2.72244 18.144171  
2002-08-23 06:37:22 51°13.874 2°55.6 21.381237 2.673213 17.781817  
2002-08-23 06:37:26 51°13.882 2°55.595 21.235294 2.636507 17.511865  
2002-08-23 06:37:31 51°13.891 2°55.587 21.162489 2.604746 17.27952  
2002-08-23 06:37:37 51°13.903 2°55.579 21.162489 2.604746 17.27952  
2002-08-23 06:37:41 51°13.911 2°55.573 21.121797 2.585186 17.13784  
2002-08-23 06:37:47 51°13.923 2°55.565 21.135615 2.569097 17.021763  
2002-08-23 06:37:51 51°13.931 2°55.559 21.219705 2.572042 17.04233  
2002-08-23 06:37:57 51°13.943 2°55.55 21.332888 2.592863 17.195024  
2002-08-23 06:38:02 51°13.953 2°55.543 21.159225 2.641976 17.55453  
2002-08-23 06:38:06 51°13.961 2°55.537 21.159225 2.641976 17.55453  
2002-08-23 06:38:12 51°13.973 2°55.529 21.207534 2.699194 17.974452  
2002-08-23 06:38:17 51°13.983 2°55.522 21.295511 2.790925 18.650245  
2002-08-23 06:38:22 51°13.993 2°55.515 21.421702 2.869521 19.233835  
2002-08-23 06:38:26 51°14.001 2°55.509 21.25084 2.977493 20.037879  
2002-08-23 06:38:31 51°14.011 2°55.503 21.214097 3.057383 20.636954  
2002-08-23 06:38:37 51°14.024 2°55.494 21.214097 3.057383 20.636954  
2002-08-23 06:38:42 51°14.034 2°55.487 21.209363 3.147707 21.318052  
2002-08-23 06:38:47 51°14.045 2°55.479 21.14334 3.24268 22.035708  
2002-08-23 06:38:51 51°14.054 2°55.474 21.278465 3.315659 22.589271  
2002-08-23 06:38:57 51°14.066 2°55.465 21.209682 3.369899 23.002263  
2002-08-23 06:39:02 51°14.076 2°55.457 21.244082 3.414769 23.344376  
2002-08-23 06:39:07 51°14.085 2°55.448 21.244082 3.414769 23.344376  
2002-08-23 06:39:12 51°14.095 2°55.44 21.111162 3.465858 23.733922  
2002-08-23 06:39:17 51°14.105 2°55.432 21.111241 3.50178 24.008517  
2002-08-23 06:39:22 51°14.115 2°55.425 21.211671 3.520743 24.153197  
2002-08-23 06:39:27 51°14.125 2°55.417 21.238277 3.528118 24.210363  
2002-08-23 06:39:32 51°14.134 2°55.409 21.108931 3.534229 24.256774  
2002-08-23 06:39:35 51°14.14 2°55.404 21.108931 3.534229 24.256774  
2002-08-23 06:39:42 51°14.154 2°55.392 21.237958 3.545396 24.341624  
2002-08-23 06:39:46 51°14.162 2°55.386 21.171962 3.553509 24.404467  
2002-08-23 06:39:52 51°14.174 2°55.376 21.269483 3.562253 24.470565  
2002-08-23 06:39:55 51°14.179 2°55.371 21.140354 3.569945 24.531045  
2002-08-23 06:40:02 51°14.193 2°55.358 21.236964 3.576899 24.58356  
2002-08-23 06:40:07 51°14.202 2°55.349 21.236964 3.576899 24.58356  
2002-08-23 06:40:12 51°14.211 2°55.339 21.142026 3.585433 24.649312  
2002-08-23 06:40:17 51°14.22 2°55.328 21.271987 3.591439 24.695038  
2002-08-23 06:40:22 51°14.228 2°55.317 21.272384 3.591333 24.69583  
2002-08-23 06:40:27 51°14.237 2°55.304 21.046004 3.582377 24.62645  
2002-08-23 06:40:32 51°14.245 2°55.291 21.180836 3.566995 24.51058  
2002-08-23 06:40:36 51°14.252 2°55.28 21.180836 3.566995 24.51058  
2002-08-23 06:40:41 51°14.26 2°55.267 21.28371 3.554246 24.412831  
2002-08-23 06:40:47 51°14.27 2°55.25 21.124823 3.544237 24.336744  
2002-08-23 06:40:51 51°14.276 2°55.238 21.226904 3.536441 24.277106  
2002-08-23 06:40:55 51°14.282 2°55.226 21.196554 3.515371 24.117081  
2002-08-23 06:41:02 51°14.293 2°55.204 21.261375 3.491246 23.93364  
2002-08-23 06:41:06 51°14.299 2°55.192 21.261375 3.491246 23.93364  
2002-08-23 06:41:12 51°14.308 2°55.173 21.163245 3.448898 23.610846  
2002-08-23 06:41:17 51°14.316 2°55.157 21.226585 3.405289 23.278753  
2002-08-23 06:41:22 51°14.323 2°55.141 21.224279 3.355575 22.901273  
2002-08-23 06:41:27 51°14.331 2°55.125 21.188317 3.317449 22.612577  
2002-08-23 06:41:30 51°14.335 2°55.115 21.31454 3.301652 22.492614  
2002-08-23 06:41:37 51°14.346 2°55.092 21.31454 3.301652 22.492614  
2002-08-23 06:41:42 51°14.353 2°55.076 21.048396 3.311025 22.562042  
2002-08-23 06:41:47 51°14.361 2°55.059 21.43459 3.330614 22.709505  
2002-08-23 06:41:52 51°14.368 2°55.042 21.397386 3.353679 22.884397  
2002-08-23 06:41:57 51°14.375 2°55.025 21.133943 3.380747 23.089311  
2002-08-23 06:42:01 51°14.381 2°55.012 21.257241 3.415401 23.351787  
2002-08-23 06:42:07 51°14.389 2°54.991 21.257241 3.415401 23.351787  
2002-08-23 06:42:12 51°14.396 2°54.974 21.058283 3.447107 23.593484  
2002-08-23 06:42:17 51°14.402 2°54.956 21.250443 3.492931 23.942561  
2002-08-23 06:42:22 51°14.408 2°54.938 21.148357 3.537495 24.283152  
2002-08-23 06:42:27 51°14.414 2°54.92 21.176897 3.581113 24.617621  
2002-08-23 06:42:30 51°14.417 2°54.909 20.969691 3.597128 24.741962  
2002-08-23 06:42:37 51°14.424 2°54.883 20.969691 3.597128 24.741962  
2002-08-23 06:42:42 51°14.43 2°54.864 21.082277 3.650762 25.153385  
2002-08-23 06:42:47 51°14.435 2°54.845 21.093513 3.695126 25.49444  
2002-08-23 06:42:52 51°14.439 2°54.826 20.93979 3.727163 25.742542  
2002-08-23 06:42:57 51°14.443 2°54.806 21.114508 3.766578 26.047194  
2002-08-23 06:43:01 51°14.447 2°54.79 20.967216 3.796616 26.280746  
2002-08-23 06:43:07 51°14.452 2°54.767 20.967216 3.796616 26.280746  
2002-08-23 06:43:11 51°14.454 2°54.75 20.955041 3.830872 26.549211  
2002-08-23 06:43:17 51°14.458 2°54.726 21.007997 3.868607 26.849732  
2002-08-23 06:43:22 51°14.46 2°54.704 20.938552 3.904131 27.132513  
2002-08-23 06:43:26 51°14.461 2°54.687 21.069563 3.942187 27.441665  
2002-08-23 06:43:32 51°14.462 2°54.661 20.969052 3.969492 27.66423  
2002-08-23 06:43:37 51°14.462 2°54.64 20.969052 3.969492 27.66423  
2002-08-23 06:43:42 51°14.461 2°54.618 21.1347 3.991843 27.848765  
2002-08-23 06:43:46 51°14.46 2°54.601 21.107736 4.013351 28.025692  
2002-08-23 06:43:51 51°14.459 2°54.579 21.047838 4.037811 28.223098  
2002-08-23 06:43:57 51°14.457 2°54.553 21.019605 4.052362 28.34088  
2002-08-23 06:44:02 51°14.454 2°54.532 20.992797 4.067966 28.465591  
2002-08-23 06:44:07 51°14.452 2°54.51 20.992797 4.067966 28.465591  
2002-08-23 06:44:12 51°14.45 2°54.489 21.095944 4.079354 28.554754  
2002-08-23 06:44:17 51°14.447 2°54.467 21.264038 4.087157 28.616484  
2002-08-23 06:44:22 51°14.444 2°54.446 20.972166 4.094432 28.672729  
2002-08-23 06:44:27 51°14.441 2°54.424 21.138204 4.107718 28.773989  
2002-08-23 06:44:31 51°14.439 2°54.407 21.274292 4.131549 28.958047  
2002-08-23 06:44:36 51°14.435 2°54.385 21.274292 4.131549 28.958047  
2002-08-23 06:44:41 51°14.431 2°54.364 21.080842 4.160126 29.178855  
2002-08-23 06:44:47 51°14.426 2°54.338 21.248694 4.187755 29.390544  
2002-08-23 06:44:52 51°14.421 2°54.316 21.120642 4.21064 29.568143  
2002-08-23 06:44:57 51°14.416 2°54.292 21.220103 4.237321 29.773207  
2002-08-23 06:45:02 51°14.41 2°54.268 21.092198 4.258309 29.936219  
2002-08-23 06:45:07 51°14.404 2°54.243 21.092198 4.258309 29.936219  
2002-08-23 06:45:11 51°14.399 2°54.222 21.156239 4.278559 30.091601  
2002-08-23 06:45:17 51°14.391 2°54.191 21.158747 4.293114 30.202371  
2002-08-23 06:45:22 51°14.385 2°54.164 21.223802 4.310095 30.334198  
2002-08-23 06:45:27 51°14.378 2°54.136 21.125461 4.320536 30.414725  
2002-08-23 06:45:31 51°14.373 2°54.113 21.062309 4.323912 30.439755  
2002-08-23 06:45:37 51°14.364 2°54.079 21.062309 4.323912 30.439755  
2002-08-23 06:45:42 51°14.357 2°54.05 21.227262 4.325388 30.448387  
2002-08-23 06:45:47 51°14.351 2°54.021 21.162728 4.326759 30.459158  
2002-08-23 06:45:52 51°14.343 2°53.992 21.196235 4.327498 30.464463  
2002-08-23 06:45:54 51°14.34 2°53.98 21.066135 4.33351 30.510707  
2002-08-23 06:46:02 51°14.329 2°53.933 21.097258 4.340577 30.564256  
2002-08-23 06:46:07 51°14.322 2°53.903 21.097258 4.340577 30.564256  
2002-08-23 06:46:12 51°14.315 2°53.873 21.131195 4.3468 30.612671  
2002-08-23 06:46:15 51°14.31 2°53.855 21.100007 4.350703 30.643351  
2002-08-23 06:46:21 51°14.301 2°53.819 21.004168 4.355449 30.679674  
2002-08-23 06:46:26 51°14.292 2°53.79 21.039704 4.358825 30.704719  
2002-08-23 06:46:31 51°14.285 2°53.76 21.269761 4.362305 30.732092  
2002-08-23 06:46:38 51°14.273 2°53.718 21.269761 4.362305 30.732092  
2002-08-23 06:46:42 51°14.266 2°53.695 21.274213 4.365048 30.754661  
2002-08-23 06:46:47 51°14.258 2°53.665 21.373737 4.368107 30.778222  
2002-08-23 06:46:52 51°14.249 2°53.635 21.44363 4.368001 30.776393  
2002-08-23 06:46:57 51°14.242 2°53.604 21.153174 4.367263 30.769085  
2002-08-23 06:47:01 51°14.234 2°53.581 21.31593 4.371482 30.801273  
2002-08-23 06:47:07 51°14.225 2°53.545 21.31593 4.371482 30.801273  
2002-08-23 06:47:11 51°14.218 2°53.521 21.287803 4.374963 30.827154  
2002-08-23 06:47:15 51°14.211 2°53.497 21.252113 4.375701 30.829958  
2002-08-23 06:47:22 51°14.199 2°53.456 21.412818 4.374963 30.821646  
2002-08-23 06:47:26 51°14.192 2°53.432 21.346705 4.371271 30.791109  
2002-08-23 06:47:30 51°14.185 2°53.408 21.281088 4.375068 30.819472  
2002-08-23 06:47:37 51°14.172 2°53.367 21.281088 4.375068 30.819472  
2002-08-23 06:47:42 51°14.163 2°53.337 21.315652 4.377389 30.837223  
2002-08-23 06:47:47 51°14.154 2°53.308 21.25088 4.377705 30.837208  
2002-08-23 06:47:51 51°14.147 2°53.284 21.15401 4.380659 30.86094  
2002-08-23 06:47:57 51°14.136 2°53.248 21.255015 4.382241 30.87489  
2002-08-23 06:48:02 51°14.127 2°53.218 21.189272 4.382769 30.879039  
2002-08-23 06:48:07 51°14.118 2°53.187 21.189272 4.382769 30.879039  
2002-08-23 06:48:11 51°14.11 2°53.164 21.190864 4.382663 30.877708  
2002-08-23 06:48:17 51°14.1 2°53.127 21.289194 4.385406 30.89828  
2002-08-23 06:48:22 51°14.091 2°53.097 21.191501 4.387937 30.917696  
2002-08-23 06:48:27 51°14.082 2°53.066 21.257241 4.388465 30.921343  
2002-08-23 06:48:31 51°14.076 2°53.041 21.353097 4.389625 30.930473  
2002-08-23 06:48:36 51°14.067 2°53.011 21.353097 4.389625 30.930473  
2002-08-23 06:48:42 51°14.056 2°52.974 21.35004 4.390891 30.938925  
2002-08-23 06:48:47 51°14.048 2°52.943 21.285459 4.392789 30.95286  
2002-08-23 06:48:51 51°14.041 2°52.918 21.219466 4.394583 30.965965  
2002-08-23 06:48:55 51°14.034 2°52.893 21.152338 4.395321 30.971272  
2002-08-23 06:49:02 51°14.022 2°52.85 21.153492 4.394477 30.965638  
2002-08-23 06:49:07 51°14.013 2°52.819 21.153492 4.394477 30.965638  
2002-08-23 06:49:12 51°14.004 2°52.788 21.312792 4.394477 30.965638  
2002-08-23 06:49:16 51°13.997 2°52.763 21.115981 4.395427 30.974114  
2002-08-23 06:49:22 51°13.986 2°52.726 21.147361 4.39627 30.980755  
2002-08-23 06:49:27 51°13.977 2°52.695 21.141031 4.396587 30.983749  
2002-08-23 06:49:31 51°13.97 2°52.671 21.30453 4.396692 30.983572  
2002-08-23 06:49:37 51°13.959 2°52.634 21.30453 4.396692 30.983572  
2002-08-23 06:49:42 51°13.95 2°52.603 21.270159 4.396376 30.982591  
2002-08-23 06:49:47 51°13.941 2°52.572 21.366077 4.396692 30.986592  
2002-08-23 06:49:51 51°13.934 2°52.547 21.171365 4.396482 30.986441  
2002-08-23 06:49:57 51°13.923 2°52.509 21.138881 4.395005 30.97683  
2002-08-23 06:50:02 51°13.914 2°52.479 20.974241 4.395216 30.979497  
2002-08-23 06:50:07 51°13.905 2°52.448 20.974241 4.395216 30.979497  
2002-08-23 06:50:11 51°13.898 2°52.423 21.137766 4.394583 30.976528  
2002-08-23 06:50:17 51°13.888 2°52.385 21.366077 4.394266 30.975547  
2002-08-23 06:50:22 51°13.879 2°52.355 21.171206 4.395321 30.983851  
2002-08-23 06:50:27 51°13.87 2°52.324 21.434392 4.395954 30.99135  
2002-08-23 06:50:32 51°13.861 2°52.293 21.276438 4.396798 30.998498  
2002-08-23 06:50:38 51°13.85 2°52.256 21.276438 4.396798 30.998498  
2002-08-23 06:50:42 51°13.843 2°52.232 21.182189 4.397748 31.004965  
2002-08-23 06:50:47 51°13.834 2°52.201 21.215648 4.39838 31.010956  
2002-08-23 06:50:51 51°13.827 2°52.176 21.182189 4.398591 31.012617  
2002-08-23 06:50:57 51°13.816 2°52.139 21.248375 4.399435 31.018254  
2002-08-23 06:51:02 51°13.807 2°52.108 21.213739 4.400596 31.026382  
2002-08-23 06:51:07 51°13.797 2°52.078 21.213739 4.400596 31.026382  
2002-08-23 06:51:12 51°13.789 2°52.046 21.114428 4.402389 31.03899  
2002-08-23 06:51:17 51°13.779 2°52.017 21.37719 4.404077 31.049253  
2002-08-23 06:51:22 51°13.771 2°51.986 21.178648 4.406714 31.069009  
2002-08-23 06:51:27 51°13.762 2°51.955 21.272901 4.40798 31.077967  
2002-08-23 06:51:31 51°13.755 2°51.93 21.142026 4.40798 31.078977  
2002-08-23 06:51:35 51°13.747 2°51.906 21.142026 4.40798 31.078977  
2002-08-23 06:51:42 51°13.735 2°51.862 21.335945 4.409456 31.089092  
2002-08-23 06:51:46 51°13.728 2°51.838 21.202959 4.409562 31.090427  
2002-08-23 06:51:51 51°13.719 2°51.807 21.235533 4.408929 31.086453  
2002-08-23 06:51:57 51°13.709 2°51.771 21.007319 4.409034 31.088294  
2002-08-23 06:52:02 51°13.699 2°51.74 21.199299 4.408823 31.087642  
2002-08-23 06:52:07 51°13.69 2°51.71 21.199299 4.408823 31.087642  
2002-08-23 06:52:11 51°13.682 2°51.686 21.362624 4.408823 31.088653  
2002-08-23 06:52:16 51°13.673 2°51.656 21.196593 4.409773 31.099161  
2002-08-23 06:52:22 51°13.661 2°51.62 21.292174 4.409878 31.101003  
2002-08-23 06:52:27 51°13.652 2°51.59 21.096262 4.410511 31.105988  
2002-08-23 06:52:31 51°13.643 2°51.567 21.224677 4.410617 31.10783  
2002-08-23 06:52:37 51°13.632 2°51.53 21.224677 4.410617 31.10783  
2002-08-23 06:52:42 51°13.622 2°51.5 21.256167 4.411461 31.116501  
2002-08-23 06:52:47 51°13.612 2°51.47 21.353772 4.412305 31.12062  
2002-08-23 06:52:51 51°13.604 2°51.446 21.026544 4.411777 31.120511  
2002-08-23 06:52:57 51°13.593 2°51.409 21.416427 4.413254 31.132147  
2002-08-23 06:53:02 51°13.583 2°51.379 21.35 4.412727 31.130015  
2002-08-23 06:53:07 51°13.574 2°51.349 21.35 4.412727 31.130015  
2002-08-23 06:53:12 51°13.563 2°51.319 21.21891 4.41336 31.134496  
2002-08-23 06:53:17 51°13.554 2°51.289 21.120642 4.414098 31.142339  
2002-08-23 06:53:22 51°13.544 2°51.259 21.152417 4.414626 31.147508  
2002-08-23 06:53:27 51°13.534 2°51.228 21.215807 4.41452 31.147689  
2002-08-23 06:53:32 51°13.524 2°51.198 21.281644 4.415153 31.152677  
2002-08-23 06:53:37 51°13.514 2°51.168 21.281644 4.415153 31.152677  
2002-08-23 06:53:42 51°13.505 2°51.137 21.148755 4.41568 31.157847  
2002-08-23 06:53:46 51°13.497 2°51.113 21.183821 4.416313 31.164356  
2002-08-23 06:53:51 51°13.487 2°51.082 21.246865 4.417052 31.169669  
2002-08-23 06:53:57 51°13.475 2°51.046 21.115663 4.418107 31.179505  
2002-08-23 06:54:02 51°13.465 2°51.016 21.306476 4.418634 31.183663  
2002-08-23 06:54:07 51°13.455 2°50.985 21.306476 4.418634 31.183663  
2002-08-23 06:54:11 51°13.447 2°50.961 21.140633 4.419267 31.188145  
2002-08-23 06:54:17 51°13.435 2°50.925 20.942704 4.419795 31.194332  
2002-08-23 06:54:22 51°13.425 2°50.894 21.070121 4.420216 31.197151  
2002-08-23 06:54:27 51°13.416 2°50.864 21.26368 4.420638 31.202  
2002-08-23 06:54:32 51°13.405 2°50.834 21.162807 4.420849 31.203663  
2002-08-23 06:54:37 51°13.395 2°50.804 21.162807 4.420849 31.203663  
2002-08-23 06:54:41 51°13.386 2°50.78 21.293088 4.420006 31.200054  
2002-08-23 06:54:47 51°13.374 2°50.745 21.261693 4.41874 31.19058  
2002-08-23 06:54:51 51°13.365 2°50.721 21.133704 4.41779 31.18563  
2002-08-23 06:54:57 51°13.353 2°50.685 21.166947 4.416736 31.179848  
2002-08-23 06:55:02 51°13.342 2°50.656 21.167902 4.416208 31.17721  
2002-08-23 06:55:06 51°13.334 2°50.632 21.167902 4.416208 31.17721  
2002-08-23 06:55:12 51°13.321 2°50.597 21.201208 4.41663 31.182567  
2002-08-23 06:55:17 51°13.31 2°50.568 21.1683 4.416419 31.182425  
2002-08-23 06:55:22 51°13.3 2°50.539 21.099171 4.417685 31.191393  
2002-08-23 06:55:27 51°13.29 2°50.51 21.161454 4.41874 31.19819  
2002-08-23 06:55:32 51°13.279 2°50.481 21.220341 4.419584 31.204846  
2002-08-23 06:55:37 51°13.269 2°50.452 21.220341 4.419584 31.204846  
2002-08-23 06:55:42 51°13.258 2°50.423 21.123071 4.420428 31.211502  
2002-08-23 06:55:47 51°13.248 2°50.394 21.282796 4.420006 31.209697  
2002-08-23 06:55:52 51°13.238 2°50.365 21.315453 4.420111 31.208498  
2002-08-23 06:55:57 51°13.228 2°50.336 21.087497 4.418529 31.198049  
2002-08-23 06:56:02 51°13.218 2°50.308 20.989445 4.415575 31.176276  
2002-08-23 06:56:07 51°13.208 2°50.279 20.989445 4.415575 31.176276  
2002-08-23 06:56:11 51°13.199 2°50.256 21.217319 4.412833 31.158196  
2002-08-23 06:56:17 51°13.187 2°50.221 21.118411 4.410723 31.142064  
2002-08-23 06:56:22 51°13.177 2°50.193 21.083711 4.409668 31.135265  
2002-08-23 06:56:27 51°13.167 2°50.164 21.017371 4.41009 31.13758  
2002-08-23 06:56:31 51°13.159 2°50.141 21.015417 4.410512 31.142934  
2002-08-23 06:56:37 51°13.147 2°50.107 21.015417 4.410512 31.142934  
2002-08-23 06:56:42 51°13.137 2°50.078 21.143778 4.409774 31.138124  
2002-08-23 06:56:47 51°13.127 2°50.049 21.107736 4.409246 31.132951  
2002-08-23 06:56:51 51°13.118 2°50.026 21.333801 4.408719 31.130311  
2002-08-23 06:56:57 51°13.106 2°49.991 21.201407 4.408402 31.128322  
2002-08-23 06:57:02 51°13.096 2°49.962 21.038229 4.406926 31.118194  
2002-08-23 06:57:07 51°13.086 2°49.934 21.038229 4.406926 31.118194  
2002-08-23 06:57:12 51°13.075 2°49.905 21.132947 4.405343 31.107741  
2002-08-23 06:57:16 51°13.067 2°49.882 21.262448 4.404921 31.105426  
2002-08-23 06:57:22 51°13.054 2°49.848 21.099848 4.403972 31.099457  
2002-08-23 06:57:27 51°13.045 2°49.818 21.161892 4.402812 31.091318  
2002-08-23 06:57:31 51°13.036 2°49.796 21.097697 4.401335 31.081694  
2002-08-23 06:57:37 51°13.024 2°49.761 21.097697 4.401335 31.081694  
2002-08-23 06:57:42 51°13.013 2°49.733 21.129204 4.400386 31.076231  
2002-08-23 06:57:47 51°13.004 2°49.703 21.064023 4.398276 31.060097  
2002-08-23 06:57:51 51°12.995 2°49.681 21.193649 4.396694 31.04863  
2002-08-23 06:57:57 51°12.983 2°49.646 21.098175 4.396483 31.04646  
2002-08-23 06:58:02 51°12.973 2°49.617 21.131394 4.395744 31.041648  
2002-08-23 06:58:07 51°12.963 2°49.588 21.131394 4.395744 31.041648  
2002-08-23 06:58:12 51°12.953 2°49.559 21.000298 4.396483 31.048988  
2002-08-23 06:58:17 51°12.943 2°49.531 21.131793 4.397432 31.056476  
2002-08-23 06:58:22 51°12.933 2°49.501 21.165315 4.398803 31.067798  
2002-08-23 06:58:27 51°12.923 2°49.473 21.310409 4.400913 31.085958  
2002-08-23 06:58:31 51°12.914 2°49.45 21.067889 4.402706 31.098585  
2002-08-23 06:58:37 51°12.902 2°49.415 21.067889 4.402706 31.098585  
2002-08-23 06:58:42 51°12.892 2°49.386 21.004327 4.40566 31.120874  
2002-08-23 06:58:47 51°12.882 2°49.357 21.134978 4.408719 31.146532  
2002-08-23 06:58:51 51°12.873 2°49.334 21.13454 4.411989 31.169799  
2002-08-23 06:58:56 51°12.863 2°49.306 21.329512 4.413044 31.178631  
2002-08-23 06:59:02 51°12.851 2°49.272 21.13239 4.41431 31.189129  
2002-08-23 06:59:07 51°12.84 2°49.243 21.13239 4.41431 31.189129  
2002-08-23 06:59:12 51°12.83 2°49.214 20.969172 4.416314 31.203931  
2002-08-23 06:59:18 51°12.817 2°49.18 21.131036 4.418424 31.220582  
2002-08-23 06:59:22 51°12.809 2°49.157 21.195599 4.41969 31.230066  
2002-08-23 06:59:27 51°12.799 2°49.127 21.095466 4.422327 31.250883  
2002-08-23 06:59:31 51°12.791 2°49.104 21.354129 4.423487 31.260552  
2002-08-23 06:59:36 51°12.781 2°49.075 21.354129 4.423487 31.260552  
2002-08-23 06:59:41 51°12.771 2°49.046 21.059439 4.421378 31.244915  
2002-08-23 06:59:47 51°12.758 2°49.011 21.057605 4.425703 31.278041  
2002-08-23 06:59:51 51°12.75 2°48.988 21.151422 4.42739 31.291877  
2002-08-23 06:59:57 51°12.738 2°48.953 21.344879 4.428656 31.302382  
2002-08-23 07:00:02 51°12.728 2°48.924 21.277193 4.430555 31.319926  
2002-08-23 07:00:07 51°12.717 2°48.895 21.277193 4.430555 31.319926  
2002-08-23 07:00:11 51°12.709 2°48.871 21.078212 4.432349 31.33511  
2002-08-23 07:00:17 51°12.697 2°48.836 21.143937 4.433825 31.346775  
2002-08-23 07:00:22 51°12.687 2°48.807 21.270715 4.435197 31.35965  
2002-08-23 07:00:27 51°12.676 2°48.778 21.039425 4.434986 31.359516  
2002-08-23 07:00:32 51°12.666 2°48.749 21.071118 4.434353 31.355027  
2002-08-23 07:00:35 51°12.66 2°48.731 21.071118 4.434353 31.355027  
2002-08-23 07:00:42 51°12.645 2°48.691 21.232153 4.434142 31.356935  
2002-08-23 07:00:47 51°12.635 2°48.661 21.132032 4.433509 31.353467  
2002-08-23 07:00:51 51°12.626 2°48.638 20.999141 4.432138 31.342632  
2002-08-23 07:00:57 51°12.614 2°48.603 20.998702 4.432032 31.343842  
2002-08-23 07:01:02 51°12.603 2°48.574 21.288876 4.431505 31.340696  
2002-08-23 07:01:07 51°12.593 2°48.545 21.288876 4.431505 31.340696  
2002-08-23 07:01:12 51°12.582 2°48.516 21.093473 4.430872 31.337737  
2002-08-23 07:01:17 51°12.572 2°48.487 21.025468 4.431083 31.341958  
2002-08-23 07:01:23 51°12.56 2°48.452 21.218472 4.431821 31.349326  
2002-08-23 07:01:27 51°12.552 2°48.429 21.314977 4.43256 31.355673  
2002-08-23 07:01:31 51°12.543 2°48.406 21.05023 4.433087 31.360864  
2002-08-23 07:01:37 51°12.531 2°48.371 21.05023 4.433087 31.360864  
2002-08-23 07:01:42 51°12.52 2°48.342 21.081559 4.434881 31.376573  
2002-08-23 07:01:47 51°12.51 2°48.313 21.079726 4.436041 31.386769  
2002-08-23 07:01:51 51°12.502 2°48.29 21.142345 4.437518 31.400491  
2002-08-23 07:01:55 51°12.494 2°48.266 21.10909 4.4391 31.415563  
2002-08-23 07:02:02 51°12.479 2°48.226 20.977593 4.44005 31.422558  
2002-08-23 07:02:05 51°12.473 2°48.208 20.977593 4.44005 31.422558  
2002-08-23 07:02:10 51°12.463 2°48.179 21.042814 4.441527 31.436287  
2002-08-23 07:02:17 51°12.448 2°48.139 21.238118 4.441949 31.440649  
2002-08-23 07:02:22 51°12.438 2°48.11 21.072632 4.443531 31.455729  
2002-08-23 07:02:25 51°12.432 2°48.092 21.074067 4.444164 31.462275  
2002-08-23 07:02:32 51°12.417 2°48.052 21.071197 4.444059 31.46144  
2002-08-23 07:02:37 51°12.407 2°48.023 21.071197 4.444059 31.46144  
2002-08-23 07:02:42 51°12.397 2°47.994 20.93963 4.444797 31.468308  
2002-08-23 07:02:47 51°12.386 2°47.965 20.905921 4.44543 31.475369  
2002-08-23 07:02:51 51°12.378 2°47.942 21.068527 4.445008 31.471517  
2002-08-23 07:02:57 51°12.366 2°47.907 21.167623 4.444059 31.466059  
2002-08-23 07:03:02 51°12.356 2°47.878 20.905401 4.444481 31.470938  
2002-08-23 07:03:06 51°12.347 2°47.855 20.905401 4.444481 31.470938  
2002-08-23 07:03:11 51°12.337 2°47.826 21.101362 4.445747 31.479413  
2002-08-23 07:03:17 51°12.325 2°47.791 21.071397 4.445536 31.479798  
2002-08-23 07:03:22 51°12.314 2°47.763 21.166907 4.446169 31.484293  
2002-08-23 07:03:27 51°12.304 2°47.734 21.069643 4.448067 31.500346  
2002-08-23 07:03:32 51°12.294 2°47.706 21.06761 4.449122 31.508694  
2002-08-23 07:03:37 51°12.283 2°47.677 21.06761 4.449122 31.508694  
2002-08-23 07:03:42 51°12.273 2°47.648 21.066773 4.450388 31.519741  
2002-08-23 07:03:47 51°12.263 2°47.619 21.098693 4.45176 31.53008  
2002-08-23 07:03:52 51°12.253 2°47.591 21.130399 4.454291 31.54909  
2002-08-23 07:03:55 51°12.246 2°47.574 21.064182 4.454819 31.554295  
2002-08-23 07:04:01 51°12.234 2°47.539 20.932602 4.456612 31.568491  
2002-08-23 07:04:06 51°12.223 2°47.511 20.932602 4.456612 31.568491  
2002-08-23 07:04:11 51°12.214 2°47.482 21.224796 4.457773 31.578192  
2002-08-23 07:04:15 51°12.205 2°47.46 21.095386 4.459777 31.594576  
2002-08-23 07:04:22 51°12.191 2°47.419 21.160658 4.459883 31.595927  
2002-08-23 07:04:26 51°12.182 2°47.397 21.127293 4.460727 31.602609  
2002-08-23 07:04:31 51°12.172 2°47.367 20.86624 4.46136 31.608652  
2002-08-23 07:04:35 51°12.164 2°47.345 20.86624 4.46136 31.608652  
2002-08-23 07:04:42 51°12.149 2°47.304 21.193211 4.460832 31.605507  
2002-08-23 07:04:47 51°12.139 2°47.275 20.964422 4.461043 31.608209  
2002-08-23 07:04:52 51°12.129 2°47.246 21.063026 4.461043 31.608209  
2002-08-23 07:04:57 51°12.118 2°47.217 21.129124 4.461149 31.609045  
2002-08-23 07:05:02 51°12.108 2°47.187 21.130956 4.460516 31.604033  
2002-08-23 07:05:07 51°12.099 2°47.157 21.130956 4.460516 31.604033  
2002-08-23 07:05:12 51°12.089 2°47.127 21.360123 4.460516 31.604033  
2002-08-23 07:05:15 51°12.083 2°47.108 20.937354 4.460516 31.604033  
2002-08-23 07:05:22 51°12.069 2°47.065 21.003729 4.460621 31.604352  
2002-08-23 07:05:27 51°12.06 2°47.034 21.102517 4.460727 31.606219  
2002-08-23 07:05:30 51°12.054 2°47.016 21.299047 4.461465 31.611551  
2002-08-23 07:05:35 51°12.045 2°46.985 21.299047 4.461465 31.611551  
2002-08-23 07:05:42 51°12.031 2°46.942 21.040143 4.463047 31.62305  
2002-08-23 07:05:47 51°12.021 2°46.91 21.007519 4.464419 31.632877  
2002-08-23 07:05:52 51°12.012 2°46.879 21.041738 4.465579 31.642067  
2002-08-23 07:05:57 51°12.002 2°46.848 20.910874 4.466318 31.646883  
2002-08-23 07:06:02 51°11.992 2°46.818 21.011268 4.467689 31.656194  
2002-08-23 07:06:06 51°11.985 2°46.792 21.011268 4.467689 31.656194  
2002-08-23 07:06:12 51°11.973 2°46.755 21.076378 4.468744 31.664032  
2002-08-23 07:06:17 51°11.963 2°46.724 21.077215 4.469166 31.66634  
2002-08-23 07:06:22 51°11.953 2°46.693 20.915708 4.469904 31.672189  
2002-08-23 07:06:27 51°11.943 2°46.662 20.949173 4.471065 31.680345  
2002-08-23 07:06:32 51°11.934 2°46.63 20.75303 4.471909 31.686512  
2002-08-23 07:06:37 51°11.924 2°46.599 20.75303 4.471909 31.686512  
2002-08-23 07:06:42 51°11.914 2°46.568 20.98334 4.472542 31.690491  
2002-08-23 07:06:46 51°11.906 2°46.543 21.016015 4.473597 31.698846  
2002-08-23 07:06:52 51°11.894 2°46.505 20.919582 4.473913 31.700836  
2002-08-23 07:06:55 51°11.889 2°46.486 21.083113 4.474968 31.708156  
2002-08-23 07:07:02 51°11.876 2°46.441 20.98729 4.475812 31.714323  
2002-08-23 07:07:06 51°11.87 2°46.414 20.98729 4.475812 31.714323  
2002-08-23 07:07:12 51°11.86 2°46.376 21.087576 4.476129 31.715795  
2002-08-23 07:07:17 51°11.852 2°46.344 21.090366 4.476867 31.722679  
2002-08-23 07:07:22 51°11.845 2°46.311 21.125739 4.477289 31.724468  
2002-08-23 07:07:27 51°11.836 2°46.278 21.095187 4.478027 31.729282  
2002-08-23 07:07:31 51°11.83 2°46.252 20.932802 4.479188 31.737955  
2002-08-23 07:07:37 51°11.82 2°46.213 20.932802 4.479188 31.737955  
2002-08-23 07:07:42 51°11.812 2°46.18 21.030493 4.479821 31.740898  
2002-08-23 07:07:46 51°11.806 2°46.154 21.323277 4.481298 31.752078  
2002-08-23 07:07:50 51°11.8 2°46.128 20.962267 4.482353 31.759915  
2002-08-23 07:07:57 51°11.789 2°46.082 21.090525 4.484252 31.772884  
2002-08-23 07:08:01 51°11.783 2°46.056 21.285975 4.485201 31.778849  
2002-08-23 07:08:06 51°11.775 2°46.023 21.285975 4.485201 31.778849  
2002-08-23 07:08:12 51°11.766 2°45.983 21.121159 4.486783 31.789828  
2002-08-23 07:08:17 51°11.758 2°45.95 21.054775 4.487311 31.792969  
2002-08-23 07:08:22 51°11.75 2°45.918 20.857846 4.487733 31.797348  
2002-08-23 07:08:27 51°11.742 2°45.885 20.954283 4.487838 31.798702  
2002-08-23 07:08:32 51°11.734 2°45.852 20.888701 4.488366 31.803399  
2002-08-23 07:08:34 51°11.731 2°45.839 20.888701 4.488366 31.803399  
2002-08-23 07:08:42 51°11.718 2°45.787 20.918224 4.488577 31.806108  
2002-08-23 07:08:47 51°11.711 2°45.754 21.083273 4.488471 31.806828  
2002-08-23 07:08:51 51°11.705 2°45.728 21.014779 4.487944 31.803687  
2002-08-23 07:08:57 51°11.695 2°45.689 21.048356 4.488577 31.808183  
2002-08-23 07:09:02 51°11.687 2°45.656 21.015177 4.488894 31.811728  
2002-08-23 07:09:07 51°11.68 2°45.623 21.015177 4.488894 31.811728  
2002-08-23 07:09:12 51°11.671 2°45.591 21.080643 4.489632 31.817578  
2002-08-23 07:09:18 51°11.662 2°45.552 21.013662 4.489632 31.819654  
2002-08-23 07:09:22 51°11.656 2°45.526 21.177693 4.489843 31.822364  
2002-08-23 07:09:27 51°11.648 2°45.493 20.847771 4.491109 31.832395  
2002-08-23 07:09:30 51°11.643 2°45.473 21.176618 4.491426 31.835942  
2002-08-23 07:09:37 51°11.632 2°45.428 21.176618 4.491426 31.835942  
2002-08-23 07:09:42 51°11.624 2°45.395 21.012864 4.493008 31.848482  
2002-08-23 07:09:47 51°11.617 2°45.363 20.851369 4.494696 31.861339  
2002-08-23 07:09:51 51°11.61 2°45.337 21.079885 4.495962 31.873452  
2002-08-23 07:09:57 51°11.601 2°45.298 21.178767 4.496806 31.879622  
2002-08-23 07:10:02 51°11.593 2°45.265 21.112675 4.498283 31.892369  
2002-08-23 07:10:06 51°11.587 2°45.239 21.112675 4.498283 31.892369  
2002-08-23 07:10:11 51°11.579 2°45.207 21.14545 4.499654 31.9022  
2002-08-23 07:10:17 51°11.57 2°45.168 21.21175 4.50092 31.913276  
2002-08-23 07:10:22 51°11.562 2°45.135 21.115504 4.503241 31.931156  
2002-08-23 07:10:27 51°11.554 2°45.102 21.050908 4.504718 31.942866  
2002-08-23 07:10:31 51°11.548 2°45.077 21.084269 4.507145 31.961062  
2002-08-23 07:10:37 51°11.539 2°45.038 21.084269 4.507145 31.961062  
2002-08-23 07:10:42 51°11.53 2°45.006 20.98745 4.509782 31.980932  
2002-08-23 07:10:46 51°11.525 2°44.98 20.923616 4.510732 31.989505  
2002-08-23 07:10:51 51°11.517 2°44.947 21.120482 4.513158 32.007181  
2002-08-23 07:10:57 51°11.507 2°44.909 21.446406 4.515479 32.026111  
2002-08-23 07:11:02 51°11.5 2°44.876 20.957955 4.518433 32.049018  
2002-08-23 07:11:07 51°11.491 2°44.844 20.957955 4.518433 32.049018  
2002-08-23 07:11:11 51°11.486 2°44.818 21.054695 4.520543 32.065232  
2002-08-23 07:11:17 51°11.476 2°44.78 21.186646 4.522653 32.081446  
2002-08-23 07:11:22 51°11.468 2°44.747 20.892097 4.525502 32.103521  
2002-08-23 07:11:26 51°11.462 2°44.721 21.120801 4.52835 32.124548  
2002-08-23 07:11:31 51°11.454 2°44.689 21.219387 4.530038 32.137417  
2002-08-23 07:11:37 51°11.446 2°44.649 21.219387 4.530038 32.137417  
2002-08-23 07:11:42 51°11.439 2°44.617 21.089091 4.53257 32.156984  
2002-08-23 07:11:47 51°11.432 2°44.584 20.957117 4.533836 32.167555  
2002-08-23 07:11:52 51°11.425 2°44.551 20.988288 4.53563 32.180738  
2002-08-23 07:11:57 51°11.418 2°44.519 20.988208 4.537107 32.19351  
2002-08-23 07:12:02 51°11.412 2°44.486 20.954323 4.538373 32.202507  
2002-08-23 07:12:06 51°11.406 2°44.459 20.954323 4.538373 32.202507  
2002-08-23 07:12:11 51°11.399 2°44.427 20.98753 4.53985 32.214756  
2002-08-23 07:12:17 51°11.391 2°44.387 21.24762 4.541538 32.227629  
2002-08-23 07:12:22 51°11.385 2°44.354 21.214813 4.543754 32.245215  
2002-08-23 07:12:27 51°11.378 2°44.321 21.149909 4.545442 32.259142  
2002-08-23 07:12:31 51°11.372 2°44.295 21.248972 4.546708 32.270246  
2002-08-23 07:12:37 51°11.365 2°44.256 21.248972 4.546708 32.270246  
2002-08-23 07:12:42 51°11.357 2°44.223 20.987769 4.547552 32.279054  
2002-08-23 07:12:47 51°11.351 2°44.19 21.184259 4.549345 32.292242  
2002-08-23 07:12:52 51°11.344 2°44.157 21.217557 4.551245 32.307849  
2002-08-23 07:12:57 51°11.337 2°44.124 21.185214 4.552616 32.317686  
2002-08-23 07:13:02 51°11.331 2°44.091 21.15401 4.553777 32.32743  
2002-08-23 07:13:06 51°11.325 2°44.065 21.15401 4.553777 32.32743  
2002-08-23 07:13:12 51°11.317 2°44.025 21.120243 4.555676 32.342513  
2002-08-23 07:13:18 51°11.309 2°43.985 20.989645 4.557364 32.35592  
2002-08-23 07:13:22 51°11.303 2°43.959 21.283075 4.55863 32.365977  
2002-08-23 07:13:26 51°11.298 2°43.932 20.88954 4.561268 32.384287  
2002-08-23 07:13:31 51°11.291 2°43.899 21.151104 4.562534 32.396458  
2002-08-23 07:13:35 51°11.286 2°43.873 21.151104 4.562534 32.396458  
2002-08-23 07:13:42 51°11.276 2°43.827 21.051067 4.564538 32.411326  
2002-08-23 07:13:47 51°11.269 2°43.794 21.148357 4.565171 32.416355  
2002-08-23 07:13:52 51°11.262 2°43.761 20.951808 4.566543 32.426194  
2002-08-23 07:13:57 51°11.256 2°43.728 21.212188 4.567492 32.435326  
2002-08-23 07:14:02 51°11.249 2°43.695 21.145172 4.568547 32.44265  
2002-08-23 07:14:07 51°11.242 2°43.662 21.145172 4.568547 32.44265  
2002-08-23 07:14:12 51°11.235 2°43.629 21.113074 4.568231 32.442253  
2002-08-23 07:14:17 51°11.228 2°43.596 20.982422 4.569075 32.447901  
2002-08-23 07:14:22 51°11.221 2°43.562 21.045924 4.569497 32.453372  
2002-08-23 07:14:27 51°11.214 2°43.529 20.914709 4.570447 32.458799  
2002-08-23 07:14:31 51°11.209 2°43.503 21.109688 4.566226 32.428441  
2002-08-23 07:14:37 51°11.201 2°43.463 21.109688 4.566226 32.428441  
2002-08-23 07:14:42 51°11.194 2°43.43 20.944621 4.571396 32.468994  
2002-08-23 07:14:47 51°11.187 2°43.397 21.008077 4.570763 32.465023  
2002-08-23 07:14:51 51°11.182 2°43.371 20.940948 4.571185 32.468377  
2002-08-23 07:14:58 51°11.172 2°43.324 21.135138 4.572451 32.4795  
2002-08-23 07:15:02 51°11.166 2°43.298 21.069205 4.572557 32.481929  
2002-08-23 07:15:07 51°11.159 2°43.264 21.069205 4.572557 32.481929  
2002-08-23 07:15:11 51°11.154 2°43.238 21.067531 4.573401 32.488107  
2002-08-23 07:15:17 51°11.146 2°43.199 21.032327 4.572873 32.484975  
2002-08-23 07:15:22 51°11.139 2°43.166 21.130877 4.573401 32.490229  
2002-08-23 07:15:27 51°11.132 2°43.133 21.063385 4.573507 32.492128  
2002-08-23 07:15:32 51°11.126 2°43.099 20.931324 4.574245 32.500652  
2002-08-23 07:15:37 51°11.119 2°43.066 20.931324 4.574245 32.500652  
2002-08-23 07:15:42 51°11.112 2°43.033 21.290426 4.575195 32.507671  
2002-08-23 07:15:47 51°11.105 2°42.999 21.289035 4.575195 32.509794  
2002-08-23 07:15:52 51°11.099 2°42.967 20.994074 4.575511 32.51231  
2002-08-23 07:15:57 51°11.091 2°42.934 21.125819 4.576883 32.524279  
2002-08-23 07:16:02 51°11.085 2°42.9 21.059519 4.577094 32.52755  
2002-08-23 07:16:07 51°11.077 2°42.867 21.059519 4.577094 32.52755  
2002-08-23 07:16:11 51°11.073 2°42.841 20.895493 4.578571 32.540359  
2002-08-23 07:16:15 51°11.067 2°42.815 21.026305 4.579837 32.55096  
2002-08-23 07:16:22 51°11.058 2°42.768 20.994074 4.580259 32.556975  
2002-08-23 07:16:26 51°11.055 2°42.74 21.090366 4.582053 32.569647  
2002-08-23 07:16:31 51°11.049 2°42.707 20.991041 4.584585 32.591387  
2002-08-23 07:16:35 51°11.048 2°42.679 20.991041 4.584585 32.591387  
2002-08-23 07:16:42 51°11.045 2°42.631 20.958275 4.586273 32.603752  
2002-08-23 07:16:47 51°11.045 2°42.597 20.926851 4.587856 32.617409  
2002-08-23 07:16:52 51°11.045 2°42.562 20.861284 4.588594 32.623818  
2002-08-23 07:16:57 51°11.046 2°42.528 21.058083 4.589861 32.632827  
2002-08-23 07:17:02 51°11.047 2°42.494 21.025866 4.59176 32.649005  
2002-08-23 07:17:07 51°11.049 2°42.46 21.025866 4.59176 32.649005  
2002-08-23 07:17:10 51°11.049 2°42.44 21.287048 4.593237 32.661827  
2002-08-23 07:17:17 51°11.051 2°42.392 21.123828 4.596086 32.683433  
2002-08-23 07:17:22 51°11.052 2°42.357 21.381475 4.597985 32.699617  
2002-08-23 07:17:27 51°11.053 2°42.323 20.956838 4.600939 32.722065  
2002-08-23 07:17:31 51°11.055 2°42.296 20.923177 4.603471 32.741689  
2002-08-23 07:17:35 51°11.056 2°42.27 20.923177 4.603471 32.741689  
2002-08-23 07:17:42 51°11.059 2°42.226 21.082795 4.606215 32.764065  
2002-08-23 07:17:47 51°11.061 2°42.197 20.948973 4.607059 32.76918  
2002-08-23 07:17:51 51°11.062 2°42.174 21.144455 4.609064 32.786748  
2002-08-23 07:17:55 51°11.064 2°42.152 20.978671 4.609802 32.793165  
2002-08-23 07:18:05 51°11.069 2°42.103 21.172041 4.610435 32.798742  
2002-08-23 07:18:10 51°11.073 2°42.082 20.908837 4.610119 32.798365  
2002-08-23 07:18:13 51°11.076 2°42.071 21.001335 4.610857 32.805319  
2002-08-23 07:18:22 51°11.087 2°42.04 21.065378 4.610646 32.80471  
2002-08-23 07:18:27 51°11.094 2°42.027 21.126496 4.611912 32.815867  
2002-08-23 07:18:32 51°11.102 2°42.014 21.122673 4.611913 32.817475  
2002-08-23 07:18:37 51°11.11 2°42.004 21.122673 4.611913 32.817475  
2002-08-23 07:18:42 51°11.12 2°41.997 20.952686 4.612968 32.828026  
2002-08-23 07:18:47 51°11.13 2°41.993 20.982542 4.612862 32.828794  
2002-08-23 07:18:52 51°11.14 2°41.991 20.884505 4.613706 32.837129  
2002-08-23 07:18:57 51°11.149 2°41.992 20.839534 4.614128 32.842102  
2002-08-23 07:19:01 51°11.155 2°41.994 20.770243 4.613073 32.836915  
2002-08-23 07:19:06 51°11.163 2°41.996 20.770243 4.613073 32.836915  
2002-08-23 07:19:12 51°11.171 2°41.997 20.924335 4.611491 32.826987  
2002-08-23 07:19:14 51°11.174 2°41.998 20.881747 4.609064 32.810867  
2002-08-23 07:19:22 51°11.184 2°42 20.878391 4.603155 32.767002  
2002-08-23 07:19:27 51°11.189 2°42 21.070799 4.593765 32.694866  
2002-08-23 07:19:32 51°11.194 2°42.001 20.774606 4.593238 32.693871  
2002-08-23 07:19:35 51°11.197 2°42.001 20.774606 4.593238 32.693871  
2002-08-23 07:19:42 51°11.202 2°42.002 20.935198 4.590705 32.68225  
2002-08-23 07:19:46 51°11.204 2°42.002 20.804937 4.590389 32.684006  
2002-08-23 07:19:52 51°11.206 2°42.002 20.934479 4.592394 32.704262  
2002-08-23 07:19:57 51°11.207 2°42.001 20.874554 4.593027 32.714661  
2002-08-23 07:20:01 51°11.208 2°42.001 20.967895 4.593027 32.718409  
2002-08-23 07:20:06 51°11.209 2°42.001 20.967895 4.593027 32.718409  
2002-08-23 07:20:12 51°11.211 2°42.001 20.865761 4.593344 32.723076  
2002-08-23 07:20:17 51°11.212 2°42 21.095227 4.593977 32.729195  
2002-08-23 07:20:22 51°11.213 2°42 20.831776 4.594293 32.733327  
2002-08-23 07:20:27 51°11.214 2°42 20.89877 4.59461 32.736387  
2002-08-23 07:20:31 51°11.214 2°42 20.895334 4.595348 32.742813  
2002-08-23 07:20:37 51°11.215 2°42 20.895334 4.595348 32.742813  
2002-08-23 07:20:42 51°11.216 2°42 20.92773 4.596826 32.755666  
2002-08-23 07:20:46 51°11.216 2°42 20.896612 4.598092 32.767911  
2002-08-23 07:20:50 51°11.217 2°42 20.92741 4.599885 32.782756  
2002-08-23 07:20:55 51°11.218 2°42 21.024869 4.600729 32.790027  
2002-08-23 07:21:02 51°11.219 2°42 21.056848 4.60189 32.799823  
2002-08-23 07:21:06 51°11.219 2°42 21.056848 4.60189 32.799823  
2002-08-23 07:21:11 51°11.22 2°42 20.828377 4.602418 32.805106  
2002-08-23 07:21:16 51°11.22 2°42 20.959153 4.603367 32.812683  
2002-08-23 07:21:22 51°11.22 2°42.001 20.924215 4.603684 32.815746  
2002-08-23 07:21:27 51°11.22 2°42.001 21.023115 4.603684 32.816283  
2002-08-23 07:21:32 51°11.22 2°42.001 21.021719 4.604528 32.823019  
2002-08-23 07:21:35 51°11.22 2°42.001 21.021719 4.604528 32.823019  
2002-08-23 07:21:42 51°11.219 2°42.002 21.054615 4.604 32.819884  
2002-08-23 07:21:47 51°11.219 2°42.002 20.825098 4.603789 32.818738  
2002-08-23 07:21:52 51°11.219 2°42.003 21.085026 4.603789 32.819275  
2002-08-23 07:21:58 51°11.218 2°42.003 21.051107 4.604106 32.821801  
2002-08-23 07:22:02 51°11.218 2°42.003 20.888021 4.603367 32.816445  
2002-08-23 07:22:07 51°11.217 2°42.003 20.888021 4.603367 32.816445  
2002-08-23 07:22:12 51°11.216 2°42.004 20.854048 4.603684 32.819509  
2002-08-23 07:22:15 51°11.216 2°42.004 20.852848 4.603367 32.81752  
2002-08-23 07:22:22 51°11.214 2°42.005 20.886103 4.603473 32.817825  
2002-08-23 07:22:26 51°11.214 2°42.005 21.017092 4.603684 32.820584  
2002-08-23 07:22:32 51°11.213 2°42.006 20.822178 4.604 32.823648  
2002-08-23 07:22:37 51°11.213 2°42.007 20.822178 4.604 32.823648  
2002-08-23 07:22:41 51°11.212 2°42.008 20.984098 4.604 32.824185  
2002-08-23 07:22:47 51°11.211 2°42.009 21.015257 4.604 32.825261  
2002-08-23 07:22:51 51°11.21 2°42.009 21.178926 4.603473 32.82105  
2002-08-23 07:22:55 51°11.209 2°42.01 20.98342 4.603789 32.824652  
2002-08-23 07:23:02 51°11.208 2°42.011 20.918903 4.604001 32.826874  
2002-08-23 07:23:06 51°11.207 2°42.012 20.918903 4.604001 32.826874  
2002-08-23 07:23:11 51°11.206 2°42.013 20.95069 4.604423 32.829705  
2002-08-23 07:23:17 51°11.205 2°42.014 20.950211 4.604739 32.832231  
2002-08-23 07:23:22 51°11.204 2°42.015 21.079686 4.605056 32.834757  
2002-08-23 07:23:27 51°11.203 2°42.016 20.917465 4.606216 32.845636  
2002-08-23 07:23:32 51°11.202 2°42.017 20.884785 4.606955 32.850455  
2002-08-23 07:23:37 51°11.201 2°42.018 20.884785 4.606955 32.850455  
2002-08-23 07:23:42 51°11.2 2°42.019 20.687181 4.606638 32.848466  
2002-08-23 07:23:47 51°11.199 2°42.02 21.015018 4.606216 32.845097  
2002-08-23 07:23:51 51°11.199 2°42.021 21.014579 4.607271 32.852443  
2002-08-23 07:23:57 51°11.198 2°42.023 20.753551 4.607271 32.852981  
2002-08-23 07:24:02 51°11.198 2°42.024 21.146286 4.607271 32.854596  
2002-08-23 07:24:07 51°11.197 2°42.026 21.146286 4.607271 32.854596  
2002-08-23 07:24:13 51°11.197 2°42.028 20.851569 4.60801 32.859954  
2002-08-23 07:24:17 51°11.196 2°42.03 20.787052 4.60801 32.859954  
2002-08-23 07:24:22 51°11.196 2°42.031 20.983101 4.608432 32.863861  
2002-08-23 07:24:26 51°11.196 2°42.033 20.885464 4.608327 32.864096  
2002-08-23 07:24:32 51°11.196 2°42.035 20.917745 4.608221 32.860562  
2002-08-23 07:24:37 51°11.196 2°42.037 20.917745 4.608221 32.860562  
2002-08-23 07:24:42 51°11.196 2°42.039 21.147003 4.608327 32.861942  
2002-08-23 07:24:47 51°11.195 2°42.04 20.985016 4.608221 32.861638  
2002-08-23 07:24:51 51°11.195 2°42.041 21.016853 4.608538 32.863627  
2002-08-23 07:24:55 51°11.194 2°42.042 21.05015 4.608432 32.863323  
2002-08-23 07:25:02 51°11.194 2°42.044 21.018009 4.60801 32.859954  
2002-08-23 07:25:07 51°11.193 2°42.046 21.018009 4.60801 32.859954  
2002-08-23 07:25:12 51°11.193 2°42.047 20.855167 4.608221 32.8611  
2002-08-23 07:25:17 51°11.193 2°42.049 20.921499 4.608115 32.860258  
2002-08-23 07:25:22 51°11.193 2°42.051 21.052263 4.608432 32.862246  
2002-08-23 07:25:26 51°11.193 2°42.052 20.857006 4.603895 32.826032  
2002-08-23 07:25:32 51°11.193 2°42.054 20.69227 4.60896 32.865381  
2002-08-23 07:25:35 51°11.193 2°42.055 20.69227 4.60896 32.865381  
2002-08-23 07:25:42 51°11.193 2°42.058 20.825377 4.607693 32.855812  
2002-08-23 07:25:47 51°11.193 2°42.06 20.95544 4.605689 32.83981  
2002-08-23 07:25:51 51°11.193 2°42.062 20.956279 4.6059 32.840419  
2002-08-23 07:25:55 51°11.193 2°42.063 20.858765 4.605478 32.837588  
2002-08-23 07:26:02 51°11.193 2°42.065 20.762158 4.605372 32.83567  
2002-08-23 07:26:05 51°11.194 2°42.066 20.762158 4.605372 32.83567  
2002-08-23 07:26:12 51°11.194 2°42.068 20.859005 4.604106 32.825565  
2002-08-23 07:26:17 51°11.194 2°42.07 20.991041 4.604634 32.830313  
2002-08-23 07:26:22 51°11.194 2°42.072 20.893855 4.605478 32.83705  
2002-08-23 07:26:27 51°11.194 2°42.074 21.154169 4.606533 32.844395  
2002-08-23 07:26:32 51°11.194 2°42.075 20.959113 4.608432 32.85794  
2002-08-23 07:26:38 51°11.195 2°42.078 20.959113 4.608432 32.85794  
2002-08-23 07:26:42 51°11.194 2°42.079 21.090087 4.605056 32.830455  
2002-08-23 07:26:47 51°11.194 2°42.081 20.861483 4.606955 32.84615  
2002-08-23 07:26:52 51°11.194 2°42.082 20.829417 4.608854 32.861846  
2002-08-23 07:26:55 51°11.193 2°42.084 20.797256 4.607693 32.850968  
2002-08-23 07:27:02 51°11.193 2°42.086 20.798256 4.606955 32.845074  
2002-08-23 07:27:07 51°11.193 2°42.087 20.798256 4.606955 32.845074  
2002-08-23 07:27:12 51°11.192 2°42.089 21.09172 4.607799 32.85181  
2002-08-23 07:27:22 51°11.191 2°42.091 21.029535 4.607588 32.850126  
2002-08-23 07:27:27 51°11.19 2°42.092 21.125461 4.607904 32.851576  
2002-08-23 07:27:32 51°11.189 2°42.093 20.963744 4.607377 32.847366  
2002-08-23 07:27:37 51°11.188 2°42.094 20.963744 4.607377 32.847366  
2002-08-23 07:27:42 51°11.187 2°42.095 20.997306 4.607482 32.847132  
2002-08-23 07:27:46 51°11.187 2°42.095 20.996069 4.608643 32.855318  
2002-08-23 07:27:52 51°11.185 2°42.096 21.127054 4.609909 32.865423  
2002-08-23 07:27:55 51°11.185 2°42.096 20.734892 4.609592 32.862897  
2002-08-23 07:28:04 51°11.183 2°42.097 21.094828 4.610015 32.867342  
2002-08-23 07:28:10 51°11.182 2°42.098 20.964302 4.610859 32.872464  
2002-08-23 07:28:15 51°11.181 2°42.098 21.03129 4.609909 32.864347  
2002-08-23 07:28:20 51°11.18 2°42.098 21.030732 4.61107 32.874686  
2002-08-23 07:28:25 51°11.178 2°42.099 21.030732 4.61107 32.874686  
2002-08-23 07:28:30 51°11.177 2°42.099 21.128368 4.612758 32.887083  
2002-08-23 07:28:34 51°11.177 2°42.1 20.997784 4.611597 32.877281  
2002-08-23 07:28:38 51°11.176 2°42.099 21.259546 4.610437 32.868019  
2002-08-23 07:28:45 51°11.174 2°42.099 21.063146 4.613391 32.892675  
2002-08-23 07:28:50 51°11.172 2°42.1 20.867919 4.610753 32.870545  
2002-08-23 07:28:53 51°11.171 2°42.099 20.867919 4.610753 32.870545  
2002-08-23 07:28:59 51°11.17 2°42.099 21.129881 4.613074 32.888533  
2002-08-23 07:29:05 51°11.169 2°42.099 21.456951 4.613707 32.894124  
2002-08-23 07:29:10 51°11.167 2°42.099 21.358218 4.612652 32.885164  
2002-08-23 07:29:15 51°11.166 2°42.099 21.065697 4.613918 32.894731  
2002-08-23 07:29:20 51°11.164 2°42.098 21.032965 4.613391 32.891059  
2002-08-23 07:29:25 51°11.163 2°42.098 21.032965 4.613391 32.891059  
2002-08-23 07:29:30 51°11.161 2°42.097 21.034999 4.611914 32.879269  
2002-08-23 07:29:35 51°11.16 2°42.097 21.100047 4.613602 32.892743  
2002-08-23 07:29:40 51°11.159 2°42.096 20.870917 4.613496 32.890285  
2002-08-23 07:29:45 51°11.157 2°42.096 20.904483 4.613813 32.891734  
2002-08-23 07:29:50 51°11.156 2°42.095 20.903644 4.613496 32.890285  
2002-08-23 07:29:53 51°11.155 2°42.094 20.903644 4.613496 32.890285  
2002-08-23 07:29:59 51°11.153 2°42.093 20.937753 4.612969 32.885536  
2002-08-23 07:30:05 51°11.151 2°42.092 20.905242 4.613074 32.885301  
2002-08-23 07:30:10 51°11.15 2°42.092 21.036554 4.61318 32.885605  
2002-08-23 07:30:15 51°11.148 2°42.09 20.872955 4.61223 32.878565  
2002-08-23 07:30:18 51°11.147 2°42.09 21.004487 4.611808 32.875197  
2002-08-23 07:30:25 51°11.145 2°42.089 21.004487 4.611808 32.875197  
2002-08-23 07:30:30 51°11.143 2°42.087 21.167225 4.611808 32.875197  
2002-08-23 07:30:35 51°11.142 2°42.086 21.005324 4.611492 32.872133  
2002-08-23 07:30:40 51°11.14 2°42.086 20.972884 4.610964 32.867384  
2002-08-23 07:30:45 51°11.139 2°42.084 21.071397 4.610647 32.865397  
2002-08-23 07:30:50 51°11.137 2°42.083 20.908158 4.609909 32.860041  
2002-08-23 07:30:55 51°11.135 2°42.081 20.908158 4.609909 32.860041  
2002-08-23 07:30:59 51°11.134 2°42.081 21.136691 4.610647 32.863782  
2002-08-23 07:31:05 51°11.132 2°42.079 20.875793 4.609065 32.851692  
2002-08-23 07:31:10 51°11.131 2°42.078 21.007678 4.608643 32.848325  
2002-08-23 07:31:15 51°11.129 2°42.076 20.975119 4.608959 32.849237  
2002-08-23 07:31:20 51°11.128 2°42.075 21.171206 4.608326 32.844723  
2002-08-23 07:31:25 51°11.126 2°42.073 21.171206 4.608326 32.844723  
2002-08-23 07:31:30 51°11.125 2°42.072 20.975478 4.607693 32.84021  
2002-08-23 07:31:35 51°11.123 2°42.071 20.648981 4.607166 32.833851  
2002-08-23 07:31:39 51°11.122 2°42.069 20.87855 4.606849 32.832938  
2002-08-23 07:31:45 51°11.12 2°42.068 21.106939 4.606321 32.827117  
2002-08-23 07:31:50 51°11.119 2°42.066 21.107776 4.606638 32.83018  
2002-08-23 07:31:55 51°11.117 2°42.065 21.107776 4.606638 32.83018  
2002-08-23 07:32:01 51°11.115 2°42.063 21.009992 4.606005 32.824054  
2002-08-23 07:32:05 51°11.115 2°42.062 21.107935 4.606321 32.826042  
2002-08-23 07:32:10 51°11.113 2°42.06 21.075701 4.605266 32.818163  
2002-08-23 07:32:15 51°11.112 2°42.059 21.010909 4.604739 32.815029  
2002-08-23 07:32:19 51°11.111 2°42.057 20.87947 4.604317 32.811662  
2002-08-23 07:32:25 51°11.109 2°42.056 20.87947 4.604317 32.811662  
2002-08-23 07:32:30 51°11.108 2°42.054 20.913551 4.604739 32.811806  
2002-08-23 07:32:35 51°11.106 2°42.052 21.043412 4.605583 32.82015  
2002-08-23 07:32:39 51°11.105 2°42.051 21.108931 4.605372 32.818467  
2002-08-23 07:32:45 51°11.104 2°42.049 20.91379 4.605161 32.817321  
2002-08-23 07:32:50 51°11.102 2°42.048 20.979748 4.60495 32.8151  
2002-08-23 07:32:55 51°11.101 2°42.046 20.979748 4.60495 32.8151  
2002-08-23 07:32:59 51°11.1 2°42.045 20.91439 4.605794 32.821834  
2002-08-23 07:33:05 51°11.099 2°42.043 21.077893 4.605372 32.817393  
2002-08-23 07:33:10 51°11.097 2°42.042 20.97903 4.605266 32.816551  
2002-08-23 07:33:15 51°11.097 2°42.04 20.947256 4.605477 32.818234  
2002-08-23 07:33:21 51°11.095 2°42.038 20.816538 4.605477 32.81716  
2002-08-23 07:33:25 51°11.094 2°42.037 20.816538 4.605477 32.81716  
2002-08-23 07:33:30 51°11.093 2°42.035 20.946817 4.606638 32.826418  
2002-08-23 07:33:35 51°11.092 2°42.034 20.947096 4.605794 32.819147  
2002-08-23 07:33:39 51°11.091 2°42.033 20.914949 4.605899 32.820526  
2002-08-23 07:33:45 51°11.09 2°42.031 21.078052 4.60611 32.823284  
2002-08-23 07:33:50 51°11.089 2°42.029 20.979748 4.606849 32.827563  
2002-08-23 07:33:55 51°11.088 2°42.027 20.979748 4.606849 32.827563  
2002-08-23 07:34:00 51°11.087 2°42.026 20.947815 4.606849 32.828101  
2002-08-23 07:34:05 51°11.086 2°42.024 20.915069 4.606427 32.825272  
2002-08-23 07:34:10 51°11.085 2°42.023 20.947735 4.606849 32.827563  
2002-08-23 07:34:13 51°11.084 2°42.022 20.916067 4.606954 32.827868  
2002-08-23 07:34:19 51°11.083 2°42.02 21.113432 4.607482 32.832613  
2002-08-23 07:34:25 51°11.082 2°42.018 21.113432 4.607482 32.832613  
2002-08-23 07:34:30 51°11.082 2°42.016 21.242412 4.60706 32.829247  
2002-08-23 07:34:35 51°11.081 2°42.015 21.210358 4.607588 32.833992  
2002-08-23 07:34:40 51°11.08 2°42.013 20.885544 4.606427 32.82366  
2002-08-23 07:34:45 51°11.079 2°42.011 21.0814 4.606743 32.826722  
2002-08-23 07:34:49 51°11.078 2°42.01 20.983899 4.606954 32.82733  
2002-08-23 07:34:55 51°11.077 2°42.008 20.983899 4.606954 32.82733  
2002-08-23 07:34:59 51°11.077 2°42.006 20.787172 4.607165 32.828476  
2002-08-23 07:35:05 51°11.076 2°42.005 20.820738 4.606743 32.82511  
2002-08-23 07:35:10 51°11.076 2°42.004 21.147839 4.606532 32.823964  
2002-08-23 07:35:15 51°11.075 2°42.002 21.082994 4.60611 32.82006  
2002-08-23 07:35:19 51°11.074 2°42.001 20.953524 4.605688 32.816694  
2002-08-23 07:35:25 51°11.073 2°41.998 20.953524 4.605688 32.816694  
2002-08-23 07:35:30 51°11.072 2°41.996 21.116659 4.606321 32.819595  
2002-08-23 07:35:35 51°11.071 2°41.994 21.085385 4.60611 32.818986  
2002-08-23 07:35:39 51°11.071 2°41.993 21.019365 4.605688 32.816157  
2002-08-23 07:35:45 51°11.07 2°41.991 20.954323 4.606005 32.81707  
2002-08-23 07:35:50 51°11.069 2°41.989 21.117893 4.605899 32.816766  
2002-08-23 07:35:55 51°11.068 2°41.987 21.117893 4.605899 32.816766  
2002-08-23 07:36:00 51°11.067 2°41.984 21.054097 4.600307 32.77217  
2002-08-23 07:36:03 51°11.067 2°41.983 21.020522 4.605266 32.810643  
2002-08-23 07:36:10 51°11.066 2°41.98 21.119327 4.605688 32.814009  
2002-08-23 07:36:15 51°11.065 2°41.978 21.153492 4.604422 32.803911  
2002-08-23 07:36:20 51°11.065 2°41.976 21.120084 4.604528 32.803679  
2002-08-23 07:36:25 51°11.064 2°41.974 21.120084 4.604528 32.803679  
2002-08-23 07:36:30 51°11.063 2°41.972 21.055851 4.604422 32.8023  
2002-08-23 07:36:35 51°11.063 2°41.97 21.055452 4.605161 32.808727  
2002-08-23 07:36:38 51°11.062 2°41.969 21.120721 4.604317 32.800922  
2002-08-23 07:36:45 51°11.062 2°41.966 20.925094 4.604211 32.800081  
2002-08-23 07:36:50 51°11.061 2°41.964 20.991959 4.604106 32.800313  
2002-08-23 07:36:55 51°11.06 2°41.962 20.991959 4.604106 32.800313  
2002-08-23 07:36:59 51°11.06 2°41.961 20.990602 4.604422 32.8023  
2002-08-23 07:37:05 51°11.06 2°41.958 20.990882 4.604844 32.805129  
2002-08-23 07:37:10 51°11.059 2°41.956 21.121398 4.603789 32.795642  
2002-08-23 07:37:15 51°11.058 2°41.954 21.121398 4.604422 32.800153  
2002-08-23 07:37:19 51°11.058 2°41.952 21.090366 4.603683 32.794264  
2002-08-23 07:37:25 51°11.057 2°41.95 21.090366 4.603683 32.794264  
2002-08-23 07:37:30 51°11.057 2°41.948 20.92761 4.603261 32.791435  
2002-08-23 07:37:35 51°11.056 2°41.946 21.189073 4.605055 32.805738  
2002-08-23 07:37:40 51°11.056 2°41.944 20.862283 4.604528 32.803679  
2002-08-23 07:37:45 51°11.055 2°41.942 20.992717 4.604316 32.798775  
2002-08-23 07:37:50 51°11.055 2°41.94 21.091242 4.604316 32.799312  
2002-08-23 07:37:55 51°11.054 2°41.938 21.091242 4.604316 32.799312  
2002-08-23 07:37:59 51°11.054 2°41.936 20.928808 4.605055 32.804664  
2002-08-23 07:38:05 51°11.053 2°41.934 20.994632 4.604211 32.79686  
2002-08-23 07:38:10 51°11.053 2°41.932 20.995111 4.604527 32.799384  
2002-08-23 07:38:15 51°11.052 2°41.93 21.124624 4.605161 32.804432  
2002-08-23 07:38:18 51°11.052 2°41.928 21.125222 4.604422 32.798543  
2002-08-23 07:38:25 51°11.051 2°41.926 21.125222 4.604422 32.798543  
2002-08-23 07:38:29 51°11.051 2°41.924 21.027462 4.603894 32.794873  
2002-08-23 07:38:35 51°11.05 2°41.921 21.027701 4.604738 32.799457  
2002-08-23 07:38:39 51°11.05 2°41.92 20.963065 4.604527 32.797238  
2002-08-23 07:38:45 51°11.05 2°41.917 20.963185 4.605055 32.803054  
2002-08-23 07:38:50 51°11.049 2°41.915 21.160459 4.604738 32.79892  
2002-08-23 07:38:55 51°11.049 2°41.913 21.160459 4.604738 32.79892  
2002-08-23 07:39:00 51°11.048 2°41.911 21.029615 4.605161 32.802822  
2002-08-23 07:39:05 51°11.048 2°41.909 21.062628 4.604844 32.800298  
2002-08-23 07:39:10 51°11.048 2°41.907 20.998303 4.604949 32.801139  
2002-08-23 07:39:15 51°11.047 2°41.906 20.998702 4.604844 32.799761  
2002-08-23 07:39:19 51°11.047 2°41.904 21.161096 4.604949 32.797383  
2002-08-23 07:39:25 51°11.046 2°41.901 21.161096 4.604949 32.797383  
2002-08-23 07:39:30 51°11.046 2°41.9 21.065139 4.604633 32.797542  
2002-08-23 07:39:35 51°11.045 2°41.897 21.097258 4.603261 32.78607  
2002-08-23 07:39:39 51°11.045 2°41.896 21.163006 4.603472 32.786143  
2002-08-23 07:39:45 51°11.044 2°41.893 20.901646 4.603683 32.787289  
2002-08-23 07:39:50 51°11.044 2°41.891 21.065697 4.603261 32.783388  
2002-08-23 07:39:55 51°11.043 2°41.889 21.065697 4.603261 32.783388  
2002-08-23 07:39:58 51°11.043 2°41.888 21.098772 4.602945 32.782474  
2002-08-23 07:40:05 51°11.043 2°41.885 20.934758 4.602417 32.775587  
2002-08-23 07:40:10 51°11.042 2°41.883 20.935597 4.602417 32.776659  
2002-08-23 07:40:15 51°11.042 2°41.882 21.001056 4.602101 32.773064  
2002-08-23 07:40:20 51°11.043 2°41.881 21.001495 4.601573 32.770467  
2002-08-23 07:40:25 51°11.043 2°41.881 21.001495 4.601573 32.770467  
2002-08-23 07:40:30 51°11.044 2°41.882 21.133147 4.601257 32.767407  
2002-08-23 07:40:34 51°11.046 2°41.882 21.03448 4.601362 32.767176  
2002-08-23 07:40:40 51°11.048 2°41.883 20.969052 4.601362 32.767712  
2002-08-23 07:40:45 51°11.051 2°41.884 21.067491 4.60094 32.764884  
2002-08-23 07:40:49 51°11.055 2°41.885 21.002253 4.59999 32.757315  
2002-08-23 07:40:55 51°11.062 2°41.886 21.002253 4.59999 32.757315  
2002-08-23 07:40:59 51°11.067 2°41.886 21.29575 4.600201 32.757389  
2002-08-23 07:41:05 51°11.078 2°41.883 20.871596 4.600623 32.760753  
2002-08-23 07:41:10 51°11.088 2°41.879 20.938192 4.600201 32.756854  
2002-08-23 07:41:14 51°11.097 2°41.874 20.937154 4.59999 32.755708  
2002-08-23 07:41:26 51°11.125 2°41.846 21.066813 4.600201 32.760069  
2002-08-23 07:41:30 51°11.133 2°41.832 20.968653 4.600096 32.758692  
2002-08-23 07:41:35 51°11.143 2°41.812 21.000338 4.600096 32.758692  
2002-08-23 07:41:41 51°11.152 2°41.784 21.031609 4.600307 32.757159  
2002-08-23 07:41:45 51°11.158 2°41.764 21.028618 4.60094 32.76542  
2002-08-23 07:41:50 51°11.165 2°41.737 20.994553 4.601573 32.768858  
2002-08-23 07:41:55 51°11.173 2°41.71 20.994553 4.601573 32.768858  
2002-08-23 07:41:59 51°11.178 2°41.687 21.091123 4.602206 32.774977  
2002-08-23 07:42:03 51°11.183 2°41.664 21.188278 4.603472 32.785607  
2002-08-23 07:42:10 51°11.189 2°41.621 21.021519 4.603789 32.789739  
2002-08-23 07:42:15 51°11.191 2°41.589 21.083472 4.605477 32.802662  
2002-08-23 07:42:20 51°11.191 2°41.557 20.754111 4.608115 32.824231  
2002-08-23 07:42:23 51°11.19 2°41.538 20.754111 4.608115 32.824231  
2002-08-23 07:42:30 51°11.185 2°41.494 21.241656 4.607798 32.822244  
2002-08-23 07:42:35 51°11.18 2°41.462 20.816698 4.610436 32.844353  
2002-08-23 07:42:39 51°11.176 2°41.436 20.880309 4.611913 32.858284  
2002-08-23 07:42:45 51°11.169 2°41.397 21.077056 4.613179 32.869996  
2002-08-23 07:42:50 51°11.162 2°41.366 21.109329 4.615817 32.894268  
2002-08-23 07:42:55 51°11.155 2°41.334 21.109329 4.615817 32.894268  
2002-08-23 07:42:59 51°11.149 2°41.309 20.977234 4.615817 32.895883  
2002-08-23 07:43:04 51°11.141 2°41.277 20.909037 4.616767 32.905615  
2002-08-23 07:43:10 51°11.131 2°41.24 20.956239 4.615817 32.899115  
2002-08-23 07:43:15 51°11.122 2°41.209 21.003729 4.616134 32.90164  
2002-08-23 07:43:20 51°11.113 2°41.177 21.097418 4.615817 32.899653  
2002-08-23 07:43:25 51°11.104 2°41.146 21.097418 4.615817 32.899653  
2002-08-23 07:43:30 51°11.094 2°41.115 20.599327 4.615923 32.899418  
2002-08-23 07:43:35 51°11.084 2°41.085 20.5844 4.61624 32.904637  
2002-08-23 07:43:39 51°11.076 2°41.061 20.582112 4.617295 32.915213  
2002-08-23 07:43:44 51°11.065 2°41.03 20.579865 4.618561 32.924779  
2002-08-23 07:43:50 51°11.053 2°40.994 20.574808 4.619933 32.938423  
2002-08-23 07:43:55 51°11.044 2°40.962 20.574808 4.619933 32.938423  
2002-08-23 07:43:59 51°11.036 2°40.938 20.571155 4.622043 32.955268  
2002-08-23 07:44:05 51°11.025 2°40.9 20.565255 4.627424 33.000391  
2002-08-23 07:44:10 51°11.016 2°40.869 20.560598 4.631539 33.035416  
2002-08-23 07:44:15 51°11.008 2°40.836 20.559996 4.634494 33.065512  
2002-08-23 07:44:20 51°10.998 2°40.805 20.559233 4.637343 33.092611  
2002-08-23 07:44:25 51°10.99 2°40.774 20.559233 4.637343 33.092611  
2002-08-23 07:44:30 51°10.98 2°40.743 20.56112 4.639031 33.1099  
2002-08-23 07:44:35 51°10.972 2°40.711 20.56104 4.63671 33.095686  
2002-08-23 07:44:41 51°10.96 2°40.674 20.594472 4.642724 33.147024  
2002-08-23 07:44:45 51°10.953 2°40.648 20.562967 4.639664 33.12799  
2002-08-23 07:44:50 51°10.943 2°40.617 20.564853 4.641564 33.144264  
2002-08-23 07:44:55 51°10.934 2°40.586 20.564853 4.641564 33.144264  
2002-08-23 07:45:00 51°10.925 2°40.554 20.568426 4.642724 33.154089  
2002-08-23 07:45:05 51°10.916 2°40.523 20.570794 4.641353 33.143663  
2002-08-23 07:45:10 51°10.906 2°40.492 20.573242 4.641986 33.148726  
2002-08-23 07:45:13 51°10.901 2°40.473 20.576132 4.639559 33.130406  
2002-08-23 07:45:22 51°10.884 2°40.416 20.577858 4.642408 33.153189  
2002-08-23 07:45:28 51°10.873 2°40.378 20.579865 4.639031 33.124557  
2002-08-23 07:45:33 51°10.863 2°40.347 20.583196 4.642408 33.149384  
2002-08-23 07:45:42 51°10.847 2°40.29 20.586005 4.642091 33.145765  
2002-08-23 07:45:47 51°10.838 2°40.258 20.588413 4.638187 33.112378  
2002-08-23 07:45:52 51°10.829 2°40.226 20.591021 4.641564 33.138287  
2002-08-23 07:46:02 51°10.81 2°40.163 20.597562 4.637765 33.104663  
2002-08-23 07:46:07 51°10.802 2°40.131 20.597562 4.637765 33.104663  
2002-08-23 07:46:12 51°10.792 2°40.1 20.599207 4.638187 33.104781  
2002-08-23 07:46:22 51°10.774 2°40.036 20.600731 4.639348 33.11243  
2002-08-23 07:46:27 51°10.764 2°40.005 20.599648 4.641458 33.126583  
2002-08-23 07:46:32 51°10.755 2°39.973 20.598284 4.639664 33.110076  
2002-08-23 07:46:42 51°10.737 2°39.91 20.596438 4.63977 33.108749  
2002-08-23 07:46:47 51°10.728 2°39.877 20.594913 4.642724 33.130188  
2002-08-23 07:46:52 51°10.719 2°39.845 20.627327 4.647789 33.169579  
2002-08-23 07:47:02 51°10.7 2°39.782 20.588894 4.64916 33.179456  
2002-08-23 07:47:08 51°10.689 2°39.743 20.5844 4.650849 33.194037  
2002-08-23 07:47:13 51°10.68 2°39.712 20.5844 4.650849 33.194037  
2002-08-23 07:47:22 51°10.664 2°39.654 20.576052 4.654225 33.221029  
2002-08-23 07:47:27 51°10.654 2°39.623 20.572159 4.651693 33.204049  
2002-08-23 07:47:32 51°10.646 2°39.591 20.601333 4.650954 33.198688  
2002-08-23 07:47:42 51°10.627 2°39.527 20.565937 4.653381 33.219723  
2002-08-23 07:47:47 51°10.618 2°39.495 20.596278 4.649899 33.19406  
2002-08-23 07:47:52 51°10.609 2°39.463 20.561722 4.649372 33.194738  
2002-08-23 07:48:02 51°10.59 2°39.399 20.558631 4.648528 33.192341  
2002-08-23 07:48:07 51°10.581 2°39.367 20.558631 4.648528 33.192341  
2002-08-23 07:48:12 51°10.572 2°39.335 20.590178 4.648844 33.196505  
2002-08-23 07:48:22 51°10.555 2°39.27 20.588814 4.644202 33.164816  
2002-08-23 07:48:27 51°10.547 2°39.237 20.588373 4.646312 33.182781  
2002-08-23 07:48:32 51°10.54 2°39.204 20.554496 4.647473 33.194242  
2002-08-23 07:48:42 51°10.527 2°39.136 20.554054 4.649372 33.210525  
2002-08-23 07:48:47 51°10.521 2°39.102 20.554335 4.652327 33.235797  
2002-08-23 07:48:52 51°10.516 2°39.068 20.554415 4.651904 33.23242  
2002-08-23 07:49:02 51°10.506 2°39 20.553452 4.650849 33.225612  
2002-08-23 07:49:07 51°10.5 2°38.966 20.553452 4.650849 33.225612  
2002-08-23 07:49:12 51°10.496 2°38.931 20.55305 4.654542 33.256254  
2002-08-23 07:49:22 51°10.486 2°38.862 20.553291 4.66024 33.30295  
2002-08-23 07:49:28 51°10.48 2°38.822 20.619024 4.659291 33.29371  
2002-08-23 07:49:33 51°10.475 2°38.787 20.55305 4.662773 33.322675  
2002-08-23 07:49:42 51°10.465 2°38.725 20.551284 4.662667 33.322923  
2002-08-23 07:49:47 51°10.46 2°38.691 20.583116 4.662878 33.324066  
2002-08-23 07:49:52 51°10.455 2°38.657 20.582433 4.664145 33.334749  
2002-08-23 07:50:02 51°10.446 2°38.588 20.548875 4.664145 33.335296  
2002-08-23 07:50:07 51°10.44 2°38.553 20.548875 4.664145 33.335296  
2002-08-23 07:50:12 51°10.435 2°38.519 20.548273 4.664039 33.333905  
2002-08-23 07:50:22 51°10.425 2°38.451 20.548032 4.665938 33.350205  
2002-08-23 07:50:27 51°10.421 2°38.416 20.58135 4.666361 33.354679  
2002-08-23 07:50:32 51°10.415 2°38.382 20.547429 4.668788 33.375207  
2002-08-23 07:50:42 51°10.405 2°38.313 20.547188 4.671742 33.397772  
2002-08-23 07:50:47 51°10.399 2°38.279 20.613248 4.669421 33.380825  
2002-08-23 07:50:52 51°10.395 2°38.244 20.646496 4.671109 33.392154  
2002-08-23 07:50:57 51°10.389 2°38.21 20.580828 4.672903 33.407068  
2002-08-23 07:51:02 51°10.384 2°38.175 20.547951 4.677124 33.44252  
2002-08-23 07:51:07 51°10.379 2°38.141 20.547951 4.677124 33.44252  
2002-08-23 07:51:10 51°10.375 2°38.121 20.550481 4.674697 33.421435  
2002-08-23 07:51:17 51°10.368 2°38.072 20.552047 4.6805 33.47012  
2002-08-23 07:51:22 51°10.363 2°38.038 20.553131 4.679128 33.458581  
2002-08-23 07:51:27 51°10.358 2°38.004 20.554817 4.67934 33.460821  
2002-08-23 07:51:31 51°10.353 2°37.976 20.555178 4.682294 33.483943  
2002-08-23 07:51:35 51°10.349 2°37.949 20.555178 4.682294 33.483943  
2002-08-23 07:51:42 51°10.341 2°37.901 20.553974 4.686515 33.518313  
2002-08-23 07:51:47 51°10.336 2°37.867 20.554215 4.688203 33.528541  
2002-08-23 07:51:51 51°10.332 2°37.839 20.54763 4.68662 33.515858  
2002-08-23 07:51:55 51°10.328 2°37.812 20.545382 4.688625 33.530273  
2002-08-23 07:52:02 51°10.32 2°37.764 20.545301 4.691263 33.550311  
2002-08-23 07:52:07 51°10.315 2°37.73 20.545301 4.691263 33.550311  
2002-08-23 07:52:11 51°10.31 2°37.703 20.545221 4.693163 33.566083  
2002-08-23 07:52:15 51°10.306 2°37.675 20.544538 4.696434 33.592851  
2002-08-23 07:52:22 51°10.298 2°37.627 20.540563 4.70076 33.628082  
2002-08-23 07:52:27 51°10.293 2°37.593 20.538595 4.703082 33.647798  
2002-08-23 07:52:31 51°10.289 2°37.565 20.569188 4.704137 33.658467  
2002-08-23 07:52:35 51°10.284 2°37.538 20.569188 4.704137 33.658467  
2002-08-23 07:52:42 51°10.277 2°37.49 20.566057 4.705403 33.670279  
2002-08-23 07:52:45 51°10.273 2°37.47 20.52968 4.708569 33.695113  
2002-08-23 07:52:51 51°10.267 2°37.428 20.526788 4.710574 33.71064  
2002-08-23 07:52:57 51°10.261 2°37.387 20.522812 4.708886 33.700971  
2002-08-23 07:53:02 51°10.255 2°37.353 20.519839 4.712368 33.730564  
2002-08-23 07:53:07 51°10.25 2°37.319 20.519839 4.712368 33.730564  
2002-08-23 07:53:12 51°10.244 2°37.285 20.517028 4.711524 33.725453  
2002-08-23 07:53:15 51°10.241 2°37.264 20.515742 4.713635 33.7446  
2002-08-23 07:53:22 51°10.233 2°37.217 20.508953 4.715006 33.757825  
2002-08-23 07:53:26 51°10.229 2°37.189 20.668745 4.712052 33.735224  
2002-08-23 07:53:31 51°10.223 2°37.155 21.089051 4.71279 33.745029  
2002-08-23 07:53:37 51°10.216 2°37.115 21.089051 4.71279 33.745029  
2002-08-23 07:53:42 51°10.211 2°37.081 21.120403 4.718489 33.791873  
2002-08-23 07:53:47 51°10.206 2°37.047 20.828337 4.719228 33.800578  
2002-08-23 07:53:51 51°10.2 2°37.02 20.728204 4.718067 33.79348  
2002-08-23 07:53:57 51°10.194 2°36.979 20.923137 4.722816 33.834385  
2002-08-23 07:54:02 51°10.189 2°36.945 20.856407 4.720705 33.821883  
2002-08-23 07:54:06 51°10.185 2°36.917 20.856407 4.720705 33.821883  
2002-08-23 07:54:11 51°10.179 2°36.884 20.821698 4.722499 33.838514  
2002-08-23 07:54:17 51°10.173 2°36.843 20.918903 4.721972 33.83928  
2002-08-23 07:54:22 51°10.167 2°36.809 21.08128 4.722077 33.840128  
2002-08-23 07:54:27 51°10.162 2°36.775 21.078132 4.723977 33.857056  
2002-08-23 07:54:31 51°10.157 2°36.748 20.848531 4.726826 33.882174  
2002-08-23 07:54:37 51°10.151 2°36.707 20.848531 4.726826 33.882174  
2002-08-23 07:54:42 51°10.146 2°36.673 20.947655 4.726087 33.875682  
2002-08-23 07:54:47 51°10.14 2°36.639 21.012864 4.728831 33.900514  
2002-08-23 07:54:51 51°10.136 2°36.613 20.883346 4.729781 33.906475  
2002-08-23 07:54:58 51°10.128 2°36.565 20.786652 4.729464 33.907832  
2002-08-23 07:55:02 51°10.124 2°36.538 21.05023 4.727248 33.891137  
2002-08-23 07:55:07 51°10.119 2°36.504 21.05023 4.727248 33.891137  
2002-08-23 07:55:11 51°10.114 2°36.478 20.986692 4.727037 33.892227  
2002-08-23 07:55:17 51°10.107 2°36.438 21.084309 4.731152 33.922518  
2002-08-23 07:55:22 51°10.102 2°36.405 20.755152 4.730519 33.920217  
2002-08-23 07:55:27 51°10.096 2°36.372 20.850849 4.72672 33.888568